sensor_id;sensor_type;location;lat;lon;timestamp;pressure;altitude;pressure_sealevel;temperature;humidity
8051;BME280;4068;42.158;24.732;2024-01-25T00:00:52;100038.44;;;2.81;100.00
8051;BME280;4068;42.158;24.732;2024-01-25T00:03:18;100028.66;;;2.85;100.00
8051;BME280;4068;42.158;24.732;2024-01-25T00:05:43;100006.84;;;2.84;100.00
8051;BME280;4068;42.158;24.732;2024-01-25T00:08:09;100010.53;;;2.80;100.00
8051;BME280;4068;42.158;24.732;2024-01-25T00:10:34;99988.50;;;2.64;100.00
8051;BME280;4068;42.158;24.732;2024-01-25T00:13:00;100008.59;;;2.63;100.00
8051;BME280;4068;42.158;24.732;2024-01-25T00:15:26;99989.22;;;2.45;100.00
8051;BME280;4068;42.158;24.732;2024-01-25T00:17:52;99981.25;;;2.26;100.00
8051;BME280;4068;42.158;24.732;2024-01-25T00:20:17;100011.81;;;2.26;100.00
8051;BME280;4068;42.158;24.732;2024-01-25T00:22:43;100017.75;;;2.29;100.00
8051;BME280;4068;42.158;24.732;2024-01-25T00:25:08;99999.44;;;2.29;100.00
8051;BME280;4068;42.158;24.732;2024-01-25T00:27:34;99994.25;;;2.28;100.00
8051;BME280;4068;42.158;24.732;2024-01-25T00:29:59;99990.44;;;2.14;100.00
8051;BME280;4068;42.158;24.732;2024-01-25T00:32:25;99996.13;;;2.02;100.00
8051;BME280;4068;42.158;24.732;2024-01-25T00:34:51;99985.72;;;2.00;100.00
8051;BME280;4068;42.158;24.732;2024-01-25T00:37:17;100004.09;;;1.99;100.00
8051;BME280;4068;42.158;24.732;2024-01-25T00:39:42;99974.69;;;1.92;100.00
8051;BME280;4068;42.158;24.732;2024-01-25T00:42:12;99990.72;;;2.06;100.00
8051;BME280;4068;42.158;24.732;2024-01-25T00:44:38;99979.84;;;2.17;100.00
8051;BME280;4068;42.158;24.732;2024-01-25T00:47:04;99978.69;;;2.02;100.00
8051;BME280;4068;42.158;24.732;2024-01-25T00:49:29;99944.25;;;1.89;100.00
8051;BME280;4068;42.158;24.732;2024-01-25T00:51:59;99978.19;;;2.15;100.00
8051;BME280;4068;42.158;24.732;2024-01-25T00:54:27;99966.38;;;2.04;100.00
8051;BME280;4068;42.158;24.732;2024-01-25T00:56:53;99961.47;;;1.97;100.00
8051;BME280;4068;42.158;24.732;2024-01-25T00:59:19;99936.38;;;1.91;100.00
8051;BME280;4068;42.158;24.732;2024-01-25T01:01:48;99979.13;;;2.36;100.00
8051;BME280;4068;42.158;24.732;2024-01-25T01:04:17;99970.38;;;2.37;100.00
8051;BME280;4068;42.158;24.732;2024-01-25T01:06:43;99946.97;;;2.32;100.00
8051;BME280;4068;42.158;24.732;2024-01-25T01:09:09;99944.72;;;2.23;100.00
8051;BME280;4068;42.158;24.732;2024-01-25T01:11:36;99928.13;;;2.24;100.00
8051;BME280;4068;42.158;24.732;2024-01-25T01:14:02;99890.81;;;2.19;100.00
8051;BME280;4068;42.158;24.732;2024-01-25T01:16:27;99909.56;;;2.51;100.00
8051;BME280;4068;42.158;24.732;2024-01-25T01:18:56;99880.13;;;2.66;100.00
8051;BME280;4068;42.158;24.732;2024-01-25T01:21:21;99861.72;;;2.88;100.00
8051;BME280;4068;42.158;24.732;2024-01-25T01:23:46;99887.97;;;3.47;100.00
8051;BME280;4068;42.158;24.732;2024-01-25T01:26:12;99898.00;;;3.94;100.00
8051;BME280;4068;42.158;24.732;2024-01-25T01:28:37;99905.69;;;4.53;97.86
8051;BME280;4068;42.158;24.732;2024-01-25T01:31:03;99902.88;;;5.09;91.68
8051;BME280;4068;42.158;24.732;2024-01-25T01:33:28;99852.72;;;5.29;87.15
8051;BME280;4068;42.158;24.732;2024-01-25T01:35:54;99906.16;;;5.95;82.79
8051;BME280;4068;42.158;24.732;2024-01-25T01:38:19;99918.47;;;6.27;78.89
8051;BME280;4068;42.158;24.732;2024-01-25T01:40:45;99918.78;;;6.52;76.17
8051;BME280;4068;42.158;24.732;2024-01-25T01:43:20;99906.50;;;6.67;74.46
8051;BME280;4068;42.158;24.732;2024-01-25T01:45:46;99899.94;;;6.74;73.83
8051;BME280;4068;42.158;24.732;2024-01-25T01:48:12;99878.72;;;6.62;73.52
8051;BME280;4068;42.158;24.732;2024-01-25T01:50:37;99907.06;;;6.72;73.61
8051;BME280;4068;42.158;24.732;2024-01-25T01:53:03;99916.13;;;6.68;74.36
8051;BME280;4068;42.158;24.732;2024-01-25T01:55:30;99906.59;;;6.66;74.80
8051;BME280;4068;42.158;24.732;2024-01-25T01:57:56;99905.81;;;6.64;75.56
8051;BME280;4068;42.158;24.732;2024-01-25T02:00:22;99896.50;;;6.58;75.72
8051;BME280;4068;42.158;24.732;2024-01-25T02:02:49;99852.38;;;6.31;75.30
8051;BME280;4068;42.158;24.732;2024-01-25T02:05:15;99900.25;;;6.54;76.04
8051;BME280;4068;42.158;24.732;2024-01-25T02:07:42;99884.34;;;6.55;75.74
8051;BME280;4068;42.158;24.732;2024-01-25T02:10:08;99876.44;;;6.55;76.13
8051;BME280;4068;42.158;24.732;2024-01-25T02:12:34;99874.38;;;6.61;75.33
8051;BME280;4068;42.158;24.732;2024-01-25T02:15:00;99875.41;;;6.58;74.99
8051;BME280;4068;42.158;24.732;2024-01-25T02:17:25;99872.91;;;6.71;75.16
8051;BME280;4068;42.158;24.732;2024-01-25T02:19:51;99864.56;;;6.79;75.23
8051;BME280;4068;42.158;24.732;2024-01-25T02:22:18;99867.31;;;6.91;74.41
8051;BME280;4068;42.158;24.732;2024-01-25T02:24:44;99863.84;;;7.05;73.94
8051;BME280;4068;42.158;24.732;2024-01-25T02:27:09;99865.81;;;7.16;73.18
8051;BME280;4068;42.158;24.732;2024-01-25T02:29:35;99855.34;;;7.29;72.43
8051;BME280;4068;42.158;24.732;2024-01-25T02:32:00;99853.47;;;7.46;72.33
8051;BME280;4068;42.158;24.732;2024-01-25T02:34:26;99846.34;;;7.60;72.33
8051;BME280;4068;42.158;24.732;2024-01-25T02:36:51;99814.03;;;7.57;71.83
8051;BME280;4068;42.158;24.732;2024-01-25T02:39:17;99853.56;;;7.86;71.86
8051;BME280;4068;42.158;24.732;2024-01-25T02:41:42;99853.94;;;7.94;71.87
8051;BME280;4068;42.158;24.732;2024-01-25T02:44:08;99844.75;;;8.00;72.24
8051;BME280;4068;42.158;24.732;2024-01-25T02:46:34;99847.00;;;8.06;72.22
8051;BME280;4068;42.158;24.732;2024-01-25T02:48:59;99837.94;;;8.10;72.51
8051;BME280;4068;42.158;24.732;2024-01-25T02:51:25;99823.13;;;8.07;72.68
8051;BME280;4068;42.158;24.732;2024-01-25T02:53:50;99826.53;;;8.09;73.08
8051;BME280;4068;42.158;24.732;2024-01-25T02:56:15;99782.84;;;7.91;73.56
8051;BME280;4068;42.158;24.732;2024-01-25T02:58:41;99816.47;;;8.15;74.01
8051;BME280;4068;42.158;24.732;2024-01-25T03:01:08;99822.69;;;8.13;74.38
8051;BME280;4068;42.158;24.732;2024-01-25T03:03:33;99808.56;;;8.15;74.67
8051;BME280;4068;42.158;24.732;2024-01-25T03:06:00;99809.59;;;8.12;75.12
8051;BME280;4068;42.158;24.732;2024-01-25T03:08:25;99816.38;;;8.16;75.59
8051;BME280;4068;42.158;24.732;2024-01-25T03:10:51;99811.75;;;8.20;75.88
8051;BME280;4068;42.158;24.732;2024-01-25T03:13:16;99805.72;;;8.18;76.20
8051;BME280;4068;42.158;24.732;2024-01-25T03:15:43;99816.38;;;8.16;77.60
8051;BME280;4068;42.158;24.732;2024-01-25T03:18:09;99813.41;;;8.21;76.92
8051;BME280;4068;42.158;24.732;2024-01-25T03:20:34;99787.28;;;8.03;78.35
8051;BME280;4068;42.158;24.732;2024-01-25T03:23:00;99808.59;;;8.27;79.01
8051;BME280;4068;42.158;24.732;2024-01-25T03:25:25;99821.47;;;8.32;79.00
8051;BME280;4068;42.158;24.732;2024-01-25T03:27:51;99799.50;;;8.32;78.08
8051;BME280;4068;42.158;24.732;2024-01-25T03:30:17;99813.75;;;8.29;78.21
8051;BME280;4068;42.158;24.732;2024-01-25T03:32:42;99800.13;;;8.22;77.44
8051;BME280;4068;42.158;24.732;2024-01-25T03:35:08;99821.56;;;8.18;76.95
8051;BME280;4068;42.158;24.732;2024-01-25T03:37:33;99785.41;;;8.05;76.51
8051;BME280;4068;42.158;24.732;2024-01-25T03:39:59;99817.41;;;8.13;76.95
8051;BME280;4068;42.158;24.732;2024-01-25T03:42:24;99800.75;;;7.86;77.18
8051;BME280;4068;42.158;24.732;2024-01-25T03:44:50;99802.22;;;7.77;78.01
8051;BME280;4068;42.158;24.732;2024-01-25T03:47:15;99812.25;;;7.85;78.17
8051;BME280;4068;42.158;24.732;2024-01-25T03:49:41;99814.16;;;7.83;78.14
8051;BME280;4068;42.158;24.732;2024-01-25T03:52:06;99816.13;;;7.79;78.39
8051;BME280;4068;42.158;24.732;2024-01-25T03:54:32;99823.44;;;7.75;79.15
8051;BME280;4068;42.158;24.732;2024-01-25T03:56:57;99835.50;;;7.80;79.17
8051;BME280;4068;42.158;24.732;2024-01-25T03:59:23;99832.75;;;7.81;79.63
8051;BME280;4068;42.158;24.732;2024-01-25T04:01:48;99825.09;;;7.91;80.15
8051;BME280;4068;42.158;24.732;2024-01-25T04:04:15;99815.97;;;7.95;80.35
8051;BME280;4068;42.158;24.732;2024-01-25T04:06:41;99822.47;;;8.31;79.35
8051;BME280;4068;42.158;24.732;2024-01-25T04:09:11;99812.16;;;8.54;78.90
8051;BME280;4068;42.158;24.732;2024-01-25T04:11:37;99794.84;;;8.88;77.09
8051;BME280;4068;42.158;24.732;2024-01-25T04:14:03;99785.16;;;9.13;75.36
8051;BME280;4068;42.158;24.732;2024-01-25T04:16:29;99785.03;;;9.27;74.97
8051;BME280;4068;42.158;24.732;2024-01-25T04:18:55;99792.22;;;9.38;74.46
8051;BME280;4068;42.158;24.732;2024-01-25T04:21:21;99777.50;;;9.34;74.00
8051;BME280;4068;42.158;24.732;2024-01-25T04:23:46;99814.59;;;9.58;72.98
8051;BME280;4068;42.158;24.732;2024-01-25T04:26:12;99815.50;;;9.70;72.22
8051;BME280;4068;42.158;24.732;2024-01-25T04:28:37;99823.97;;;9.75;71.86
8051;BME280;4068;42.158;24.732;2024-01-25T04:31:03;99842.41;;;9.77;72.32
8051;BME280;4068;42.158;24.732;2024-01-25T04:33:29;99851.53;;;9.73;72.78
8051;BME280;4068;42.158;24.732;2024-01-25T04:35:55;99848.88;;;9.73;73.18
8051;BME280;4068;42.158;24.732;2024-01-25T04:38:21;99840.09;;;9.72;73.46
8051;BME280;4068;42.158;24.732;2024-01-25T04:40:47;99813.03;;;9.56;73.67
8051;BME280;4068;42.158;24.732;2024-01-25T04:43:12;99843.06;;;9.67;74.61
8051;BME280;4068;42.158;24.732;2024-01-25T04:45:39;99838.22;;;9.61;75.27
8051;BME280;4068;42.158;24.732;2024-01-25T04:48:05;99812.59;;;9.49;75.67
8051;BME280;4068;42.158;24.732;2024-01-25T04:50:30;99842.78;;;9.59;75.85
8051;BME280;4068;42.158;24.732;2024-01-25T04:52:56;99832.91;;;9.61;75.35
8051;BME280;4068;42.158;24.732;2024-01-25T04:55:21;99844.25;;;9.63;75.38
8051;BME280;4068;42.158;24.732;2024-01-25T04:57:47;99847.97;;;9.61;75.57
8051;BME280;4068;42.158;24.732;2024-01-25T05:00:13;99841.19;;;9.57;75.89
8051;BME280;4068;42.158;24.732;2024-01-25T05:02:39;99835.91;;;9.57;76.61
8051;BME280;4068;42.158;24.732;2024-01-25T05:05:04;99820.66;;;9.47;77.01
8051;BME280;4068;42.158;24.732;2024-01-25T05:07:30;99824.06;;;9.49;77.08
8051;BME280;4068;42.158;24.732;2024-01-25T05:09:55;99838.44;;;9.58;77.22
8051;BME280;4068;42.158;24.732;2024-01-25T05:12:21;99845.22;;;9.62;77.56
8051;BME280;4068;42.158;24.732;2024-01-25T05:14:46;99825.38;;;9.68;77.63
8051;BME280;4068;42.158;24.732;2024-01-25T05:17:12;99827.47;;;9.76;78.07
8051;BME280;4068;42.158;24.732;2024-01-25T05:19:37;99800.16;;;9.75;77.84
8051;BME280;4068;42.158;24.732;2024-01-25T05:22:03;99799.47;;;9.84;78.31
8051;BME280;4068;42.158;24.732;2024-01-25T05:24:32;99821.63;;;9.83;78.21
8051;BME280;4068;42.158;24.732;2024-01-25T05:26:58;99841.63;;;9.88;78.00
8051;BME280;4068;42.158;24.732;2024-01-25T05:29:23;99809.78;;;9.76;77.79
8051;BME280;4068;42.158;24.732;2024-01-25T05:31:49;99852.06;;;10.02;77.88
8051;BME280;4068;42.158;24.732;2024-01-25T05:34:15;99829.78;;;10.05;77.75
8051;BME280;4068;42.158;24.732;2024-01-25T05:36:41;99820.88;;;10.06;77.77
8051;BME280;4068;42.158;24.732;2024-01-25T05:39:07;99838.47;;;10.07;77.63
8051;BME280;4068;42.158;24.732;2024-01-25T05:41:33;99842.72;;;10.09;77.88
8051;BME280;4068;42.158;24.732;2024-01-25T05:43:59;99844.91;;;10.15;77.73
8051;BME280;4068;42.158;24.732;2024-01-25T05:46:25;99818.00;;;10.09;78.32
8051;BME280;4068;42.158;24.732;2024-01-25T05:48:50;99839.31;;;10.07;78.90
8051;BME280;4068;42.158;24.732;2024-01-25T05:51:16;99841.84;;;10.09;79.34
8051;BME280;4068;42.158;24.732;2024-01-25T05:53:41;99850.53;;;10.11;79.51
8051;BME280;4068;42.158;24.732;2024-01-25T05:56:07;99855.63;;;10.14;79.37
8051;BME280;4068;42.158;24.732;2024-01-25T05:58:33;99837.34;;;9.98;79.62
8051;BME280;4068;42.158;24.732;2024-01-25T06:00:58;99856.22;;;10.17;79.53
8051;BME280;4068;42.158;24.732;2024-01-25T06:03:24;99860.69;;;10.17;79.51
8051;BME280;4068;42.158;24.732;2024-01-25T06:05:49;99866.94;;;10.16;79.71
8051;BME280;4068;42.158;24.732;2024-01-25T06:08:14;99875.56;;;10.07;80.34
8051;BME280;4068;42.158;24.732;2024-01-25T06:10:40;99851.41;;;9.74;81.34
8051;BME280;4068;42.158;24.732;2024-01-25T06:13:06;99893.88;;;9.85;82.24
8051;BME280;4068;42.158;24.732;2024-01-25T06:15:31;99909.47;;;9.77;82.78
8051;BME280;4068;42.158;24.732;2024-01-25T06:17:57;99915.19;;;9.71;83.33
8051;BME280;4068;42.158;24.732;2024-01-25T06:20:23;99855.66;;;9.27;84.29
8051;BME280;4068;42.158;24.732;2024-01-25T06:22:48;99924.97;;;9.58;84.84
8051;BME280;4068;42.158;24.732;2024-01-25T06:25:14;99926.38;;;9.50;85.29
8051;BME280;4068;42.158;24.732;2024-01-25T06:27:40;99895.56;;;9.24;85.89
8051;BME280;4068;42.158;24.732;2024-01-25T06:30:06;99918.22;;;9.41;85.94
8051;BME280;4068;42.158;24.732;2024-01-25T06:32:31;99904.56;;;9.34;85.56
8051;BME280;4068;42.158;24.732;2024-01-25T06:34:57;99917.13;;;9.43;84.51
8051;BME280;4068;42.158;24.732;2024-01-25T06:37:22;99908.56;;;9.53;83.42
8051;BME280;4068;42.158;24.732;2024-01-25T06:39:48;99897.97;;;9.53;81.89
8051;BME280;4068;42.158;24.732;2024-01-25T06:42:13;99911.63;;;9.59;80.52
8051;BME280;4068;42.158;24.732;2024-01-25T06:44:39;99919.81;;;9.80;78.96
8051;BME280;4068;42.158;24.732;2024-01-25T06:47:04;99924.59;;;9.88;77.29
8051;BME280;4068;42.158;24.732;2024-01-25T06:49:30;99902.47;;;9.89;76.72
8051;BME280;4068;42.158;24.732;2024-01-25T06:51:56;99918.28;;;10.15;75.80
8051;BME280;4068;42.158;24.732;2024-01-25T06:54:21;99905.56;;;10.31;74.14
8051;BME280;4068;42.158;24.732;2024-01-25T06:56:47;99922.63;;;10.40;73.69
8051;BME280;4068;42.158;24.732;2024-01-25T06:59:12;99918.06;;;10.42;73.03
8051;BME280;4068;42.158;24.732;2024-01-25T07:01:38;99929.28;;;10.46;73.14
8051;BME280;4068;42.158;24.732;2024-01-25T07:04:04;99906.66;;;10.53;72.60
8051;BME280;4068;42.158;24.732;2024-01-25T07:06:30;99883.38;;;10.45;71.55
8051;BME280;4068;42.158;24.732;2024-01-25T07:08:55;99927.38;;;10.48;72.39
8051;BME280;4068;42.158;24.732;2024-01-25T07:11:21;99929.41;;;10.44;72.54
8051;BME280;4068;42.158;24.732;2024-01-25T07:13:46;99906.31;;;10.33;72.93
8051;BME280;4068;42.158;24.732;2024-01-25T07:16:12;99922.47;;;10.30;73.16
8051;BME280;4068;42.158;24.732;2024-01-25T07:18:37;99902.31;;;10.28;72.88
8051;BME280;4068;42.158;24.732;2024-01-25T07:21:03;99904.19;;;10.39;72.73
8051;BME280;4068;42.158;24.732;2024-01-25T07:23:33;99897.56;;;10.20;73.08
8051;BME280;4068;42.158;24.732;2024-01-25T07:25:59;99912.50;;;10.34;73.00
8051;BME280;4068;42.158;24.732;2024-01-25T07:28:24;99924.63;;;10.49;72.16
8051;BME280;4068;42.158;24.732;2024-01-25T07:30:50;99936.09;;;10.61;72.71
8051;BME280;4068;42.158;24.732;2024-01-25T07:33:16;99929.53;;;10.78;72.39
8051;BME280;4068;42.158;24.732;2024-01-25T07:35:42;99914.59;;;10.77;71.75
8051;BME280;4068;42.158;24.732;2024-01-25T07:38:14;99924.91;;;10.93;71.58
8051;BME280;4068;42.158;24.732;2024-01-25T07:40:40;99950.25;;;11.09;72.03
8051;BME280;4068;42.158;24.732;2024-01-25T07:43:06;99923.28;;;10.79;71.46
8051;BME280;4068;42.158;24.732;2024-01-25T07:45:32;99945.00;;;10.84;71.49
8051;BME280;4068;42.158;24.732;2024-01-25T07:47:58;99901.16;;;10.56;71.56
8051;BME280;4068;42.158;24.732;2024-01-25T07:50:23;99962.09;;;10.69;71.71
8051;BME280;4068;42.158;24.732;2024-01-25T07:52:49;99941.94;;;10.66;71.46
8051;BME280;4068;42.158;24.732;2024-01-25T07:55:18;99950.28;;;10.73;70.22
8051;BME280;4068;42.158;24.732;2024-01-25T07:57:44;99950.78;;;10.78;68.19
8051;BME280;4068;42.158;24.732;2024-01-25T08:00:09;99958.50;;;10.81;68.95
8051;BME280;4068;42.158;24.732;2024-01-25T08:02:36;99956.41;;;10.98;68.81
8051;BME280;4068;42.158;24.732;2024-01-25T08:05:02;99941.44;;;11.08;68.65
8051;BME280;4068;42.158;24.732;2024-01-25T08:07:28;99914.31;;;11.16;68.43
8051;BME280;4068;42.158;24.732;2024-01-25T08:09:54;99940.56;;;11.43;68.04
8051;BME280;4068;42.158;24.732;2024-01-25T08:12:24;99937.91;;;11.54;67.22
8051;BME280;4068;42.158;24.732;2024-01-25T08:14:49;99931.00;;;11.40;66.57
8051;BME280;4068;42.158;24.732;2024-01-25T08:17:15;99879.72;;;11.17;66.49
8051;BME280;4068;42.158;24.732;2024-01-25T08:19:40;99943.69;;;11.60;66.77
8051;BME280;4068;42.158;24.732;2024-01-25T08:22:06;99930.41;;;11.71;66.65
8051;BME280;4068;42.158;24.732;2024-01-25T08:24:32;99919.53;;;11.74;67.47
8051;BME280;4068;42.158;24.732;2024-01-25T08:26:57;99924.97;;;11.72;68.40
8051;BME280;4068;42.158;24.732;2024-01-25T08:29:22;99925.47;;;11.78;68.40
8051;BME280;4068;42.158;24.732;2024-01-25T08:31:48;99923.63;;;11.89;67.08
8051;BME280;4068;42.158;24.732;2024-01-25T08:34:13;99930.78;;;12.00;67.03
8051;BME280;4068;42.158;24.732;2024-01-25T08:36:40;99919.06;;;12.03;66.87
8051;BME280;4068;42.158;24.732;2024-01-25T08:39:05;99891.63;;;11.91;67.42
8051;BME280;4068;42.158;24.732;2024-01-25T08:41:31;99871.72;;;11.74;66.23
8051;BME280;4068;42.158;24.732;2024-01-25T08:43:56;99901.66;;;11.87;66.66
8051;BME280;4068;42.158;24.732;2024-01-25T08:46:21;99899.13;;;11.86;66.98
8051;BME280;4068;42.158;24.732;2024-01-25T08:48:47;99890.81;;;11.68;68.11
8051;BME280;4068;42.158;24.732;2024-01-25T08:51:12;99907.56;;;11.91;66.97
8051;BME280;4068;42.158;24.732;2024-01-25T08:53:38;99887.91;;;11.94;66.29
8051;BME280;4068;42.158;24.732;2024-01-25T08:56:04;99898.75;;;12.02;65.28
8051;BME280;4068;42.158;24.732;2024-01-25T08:58:30;99910.34;;;12.12;65.36
8051;BME280;4068;42.158;24.732;2024-01-25T09:00:55;99894.50;;;12.11;64.87
8051;BME280;4068;42.158;24.732;2024-01-25T09:03:21;99890.66;;;12.03;63.84
8051;BME280;4068;42.158;24.732;2024-01-25T09:05:47;99904.91;;;12.02;64.00
8051;BME280;4068;42.158;24.732;2024-01-25T09:08:14;99902.13;;;12.04;64.85
8051;BME280;4068;42.158;24.732;2024-01-25T09:10:42;99923.13;;;12.07;64.23
8051;BME280;4068;42.158;24.732;2024-01-25T09:13:08;99888.50;;;12.08;63.55
8051;BME280;4068;42.158;24.732;2024-01-25T09:15:34;99897.88;;;12.13;63.53
8051;BME280;4068;42.158;24.732;2024-01-25T09:18:00;99901.94;;;12.28;63.21
8051;BME280;4068;42.158;24.732;2024-01-25T09:20:25;99914.28;;;12.29;63.62
8051;BME280;4068;42.158;24.732;2024-01-25T09:22:51;99897.84;;;12.24;63.06
8051;BME280;4068;42.158;24.732;2024-01-25T09:25:19;99907.75;;;12.33;62.77
8051;BME280;4068;42.158;24.732;2024-01-25T09:27:45;99917.28;;;12.36;62.64
8051;BME280;4068;42.158;24.732;2024-01-25T09:30:10;99918.97;;;12.37;63.52
8051;BME280;4068;42.158;24.732;2024-01-25T09:32:36;99910.84;;;12.38;63.67
8051;BME280;4068;42.158;24.732;2024-01-25T09:35:01;99914.16;;;12.31;62.92
8051;BME280;4068;42.158;24.732;2024-01-25T09:37:27;99911.75;;;12.60;61.86
8051;BME280;4068;42.158;24.732;2024-01-25T09:39:52;99887.22;;;12.56;60.09
8051;BME280;4068;42.158;24.732;2024-01-25T09:42:18;99907.88;;;12.85;60.36
8051;BME280;4068;42.158;24.732;2024-01-25T09:44:44;99905.94;;;12.87;59.57
8051;BME280;4068;42.158;24.732;2024-01-25T09:47:10;99911.00;;;12.90;59.76
8051;BME280;4068;42.158;24.732;2024-01-25T09:49:37;99923.59;;;12.88;59.56
8051;BME280;4068;42.158;24.732;2024-01-25T09:52:03;99929.41;;;12.82;59.11
8051;BME280;4068;42.158;24.732;2024-01-25T09:54:34;99897.41;;;12.51;60.12
8051;BME280;4068;42.158;24.732;2024-01-25T09:57:04;99909.84;;;12.51;59.50
8051;BME280;4068;42.158;24.732;2024-01-25T09:59:31;99885.06;;;12.50;59.49
8051;BME280;4068;42.158;24.732;2024-01-25T10:01:56;99919.09;;;12.68;58.70
8051;BME280;4068;42.158;24.732;2024-01-25T10:04:23;99933.78;;;12.83;58.53
8051;BME280;4068;42.158;24.732;2024-01-25T10:06:49;99902.88;;;12.71;59.10
8051;BME280;4068;42.158;24.732;2024-01-25T10:09:15;99912.03;;;12.78;58.67
8051;BME280;4068;42.158;24.732;2024-01-25T10:11:40;99921.22;;;12.74;58.54
8051;BME280;4068;42.158;24.732;2024-01-25T10:14:06;99912.03;;;12.78;59.27
8051;BME280;4068;42.158;24.732;2024-01-25T10:16:52;99921.84;;;12.77;58.59
8051;BME280;4068;42.158;24.732;2024-01-25T10:19:17;99918.50;;;12.85;58.43
8051;BME280;4068;42.158;24.732;2024-01-25T10:21:43;99881.44;;;12.72;57.62
8051;BME280;4068;42.158;24.732;2024-01-25T10:24:09;99911.47;;;12.95;57.19
8051;BME280;4068;42.158;24.732;2024-01-25T10:26:36;99908.41;;;13.00;57.79
8051;BME280;4068;42.158;24.732;2024-01-25T10:29:01;99919.81;;;12.91;57.78
8051;BME280;4068;42.158;24.732;2024-01-25T10:31:28;99907.72;;;12.87;56.92
8051;BME280;4068;42.158;24.732;2024-01-25T10:33:54;99882.94;;;12.86;57.28
8051;BME280;4068;42.158;24.732;2024-01-25T10:36:21;99900.47;;;13.10;57.30
8051;BME280;4068;42.158;24.732;2024-01-25T10:38:48;99875.22;;;13.04;56.71
8051;BME280;4068;42.158;24.732;2024-01-25T10:41:14;99896.09;;;13.30;57.01
8051;BME280;4068;42.158;24.732;2024-01-25T10:43:40;99890.84;;;13.40;57.19
8051;BME280;4068;42.158;24.732;2024-01-25T10:46:07;99893.66;;;13.38;56.79
8051;BME280;4068;42.158;24.732;2024-01-25T10:48:34;99868.03;;;13.26;56.68
8051;BME280;4068;42.158;24.732;2024-01-25T10:51:01;99891.47;;;13.32;56.45
8051;BME280;4068;42.158;24.732;2024-01-25T10:53:31;99886.41;;;13.29;56.32
8051;BME280;4068;42.158;24.732;2024-01-25T10:55:57;99890.31;;;13.25;55.59
8051;BME280;4068;42.158;24.732;2024-01-25T10:58:23;99859.88;;;12.97;55.99
8051;BME280;4068;42.158;24.732;2024-01-25T11:00:57;99881.44;;;12.93;56.39
8051;BME280;4068;42.158;24.732;2024-01-25T11:03:27;99836.06;;;12.74;56.40
8051;BME280;4068;42.158;24.732;2024-01-25T11:05:55;99868.47;;;12.79;56.55
8051;BME280;4068;42.158;24.732;2024-01-25T11:08:21;99836.03;;;12.64;56.73
8051;BME280;4068;42.158;24.732;2024-01-25T11:10:50;99870.44;;;12.77;56.40
8051;BME280;4068;42.158;24.732;2024-01-25T11:13:23;99860.75;;;12.76;56.74
8051;BME280;4068;42.158;24.732;2024-01-25T11:15:49;99851.75;;;12.67;57.23
8051;BME280;4068;42.158;24.732;2024-01-25T11:18:16;99847.66;;;12.63;57.80
8051;BME280;4068;42.158;24.732;2024-01-25T11:20:41;99865.25;;;12.75;56.69
8051;BME280;4068;42.158;24.732;2024-01-25T11:23:07;99852.38;;;12.81;57.19
8051;BME280;4068;42.158;24.732;2024-01-25T11:25:36;99860.22;;;12.82;56.45
8051;BME280;4068;42.158;24.732;2024-01-25T11:28:03;99840.91;;;12.80;56.86
8051;BME280;4068;42.158;24.732;2024-01-25T11:30:32;99839.34;;;12.77;56.71
8051;BME280;4068;42.158;24.732;2024-01-25T11:32:57;99841.53;;;12.72;57.25
8051;BME280;4068;42.158;24.732;2024-01-25T11:35:23;99851.94;;;12.54;56.91
8051;BME280;4068;42.158;24.732;2024-01-25T11:37:49;99831.88;;;12.18;57.76
8051;BME280;4068;42.158;24.732;2024-01-25T11:40:17;99864.66;;;12.07;58.13
8051;BME280;4068;42.158;24.732;2024-01-25T11:42:46;99840.31;;;11.79;58.84
8051;BME280;4068;42.158;24.732;2024-01-25T11:45:13;99834.63;;;11.72;59.38
8051;BME280;4068;42.158;24.732;2024-01-25T11:47:40;99858.16;;;11.88;59.67
8051;BME280;4068;42.158;24.732;2024-01-25T11:50:07;99854.78;;;11.98;59.75
8051;BME280;4068;42.158;24.732;2024-01-25T11:52:34;99840.03;;;12.05;59.92
8051;BME280;4068;42.158;24.732;2024-01-25T11:55:02;99853.41;;;12.15;60.11
8051;BME280;4068;42.158;24.732;2024-01-25T11:57:28;99834.63;;;12.28;60.55
8051;BME280;4068;42.158;24.732;2024-01-25T11:59:55;99835.75;;;12.46;59.91
8051;BME280;4068;42.158;24.732;2024-01-25T12:02:21;99817.97;;;12.47;58.90
8051;BME280;4068;42.158;24.732;2024-01-25T12:04:47;99818.72;;;12.70;58.94
8051;BME280;4068;42.158;24.732;2024-01-25T12:07:13;99794.78;;;12.80;58.26
8051;BME280;4068;42.158;24.732;2024-01-25T12:09:39;99818.75;;;12.80;57.87
8051;BME280;4068;42.158;24.732;2024-01-25T12:12:05;99814.84;;;12.84;57.07
8051;BME280;4068;42.158;24.732;2024-01-25T12:14:31;99822.56;;;12.87;56.99
8051;BME280;4068;42.158;24.732;2024-01-25T12:16:56;99791.63;;;12.65;57.47
8051;BME280;4068;42.158;24.732;2024-01-25T12:19:22;99827.31;;;12.83;57.20
8051;BME280;4068;42.158;24.732;2024-01-25T12:21:47;99822.69;;;12.85;56.99
8051;BME280;4068;42.158;24.732;2024-01-25T12:24:13;99826.34;;;12.84;56.63
8051;BME280;4068;42.158;24.732;2024-01-25T12:26:41;99834.06;;;12.87;56.52
8051;BME280;4068;42.158;24.732;2024-01-25T12:29:07;99828.00;;;12.75;55.94
8051;BME280;4068;42.158;24.732;2024-01-25T12:31:33;99824.25;;;12.67;56.39
8051;BME280;4068;42.158;24.732;2024-01-25T12:34:00;99813.19;;;12.62;55.93
8051;BME280;4068;42.158;24.732;2024-01-25T12:36:26;99815.38;;;12.56;56.35
8051;BME280;4068;42.158;24.732;2024-01-25T12:38:51;99822.19;;;12.49;56.75
8051;BME280;4068;42.158;24.732;2024-01-25T12:41:17;99816.66;;;12.41;57.30
8051;BME280;4068;42.158;24.732;2024-01-25T12:43:43;99822.25;;;12.38;57.94
8051;BME280;4068;42.158;24.732;2024-01-25T12:46:08;99818.41;;;12.31;57.90
8051;BME280;4068;42.158;24.732;2024-01-25T12:48:34;99821.13;;;12.19;58.08
8051;BME280;4068;42.158;24.732;2024-01-25T12:51:00;99819.25;;;12.31;58.50
8051;BME280;4068;42.158;24.732;2024-01-25T12:53:25;99820.72;;;12.24;58.64
8051;BME280;4068;42.158;24.732;2024-01-25T12:55:51;99809.91;;;12.16;58.69
8051;BME280;4068;42.158;24.732;2024-01-25T12:58:16;99812.44;;;12.17;59.57
8051;BME280;4068;42.158;24.732;2024-01-25T13:00:42;99824.63;;;12.20;59.15
8051;BME280;4068;42.158;24.732;2024-01-25T13:03:10;99810.63;;;12.18;60.04
8051;BME280;4068;42.158;24.732;2024-01-25T13:05:36;99813.16;;;12.19;59.40
8051;BME280;4068;42.158;24.732;2024-01-25T13:08:01;99793.75;;;12.07;58.79